createdAt,value
2023-04-11T00:01:16.100Z,100240.06
2023-04-11T00:03:44.100Z,100227.41
2023-04-11T00:06:12.033Z,100235.78
2023-04-11T00:08:39.893Z,100204.38
2023-04-11T00:11:08.600Z,100160.94
2023-04-11T00:13:37.228Z,100112.91
2023-04-11T00:16:05.570Z,100072.25
2023-04-11T00:18:36.958Z,100092.91
2023-04-11T00:21:05.763Z,100104.03
2023-04-11T00:23:33.856Z,100069.91
2023-04-11T00:26:01.667Z,100013.81
2023-04-11T00:28:29.568Z,100135.06
2023-04-11T00:30:57.451Z,100135.44
2023-04-11T00:33:25.336Z,100094.41
2023-04-11T00:35:54.676Z,100121.50
2023-04-11T00:38:22.640Z,100120.72
2023-04-11T00:40:50.549Z,100131.78
2023-04-11T00:43:18.451Z,100139.09
2023-04-11T00:45:46.570Z,100143.66
2023-04-11T00:48:14.962Z,100173.75
2023-04-11T00:50:44.103Z,100178.34
2023-04-11T00:53:14.012Z,100174.84
2023-04-11T00:55:42.130Z,100186.50
2023-04-11T00:58:10.225Z,100186.34
2023-04-11T01:00:38.780Z,100182.91
2023-04-11T01:03:06.939Z,100190.94
2023-04-11T01:05:36.490Z,100195.72
2023-04-11T01:08:05.682Z,100193.13
2023-04-11T01:10:35.215Z,100194.66
2023-04-11T01:13:03.807Z,100187.78
2023-04-11T01:15:32.034Z,100197.22
2023-04-11T01:18:02.335Z,100204.91
2023-04-11T01:20:31.757Z,100198.94
2023-04-11T01:23:03.094Z,100196.72
2023-04-11T01:25:32.282Z,100187.59
2023-04-11T01:28:00.321Z,100187.75
2023-04-11T01:30:28.339Z,100186.81
2023-04-11T01:32:56.268Z,100176.72
2023-04-11T01:35:24.448Z,100175.81
2023-04-11T01:37:53.116Z,100170.06
2023-04-11T01:40:22.588Z,100163.44
2023-04-11T01:42:52.995Z,100160.88
2023-04-11T01:45:22.903Z,100159.69
2023-04-11T01:47:52.255Z,100164.47
2023-04-11T01:50:20.536Z,100161.59
2023-04-11T01:52:49.278Z,100157.91
2023-04-11T01:55:17.139Z,100169.06
2023-04-11T01:57:45.353Z,100158.53
2023-04-11T02:00:16.667Z,100182.44
2023-04-11T02:02:44.618Z,100165.47
2023-04-11T02:05:12.891Z,100152.50
2023-04-11T02:07:41.181Z,100147.69
2023-04-11T02:10:09.910Z,100127.72
2023-04-11T02:12:37.796Z,100124.19
2023-04-11T02:15:06.283Z,100111.25
2023-04-11T02:17:36.794Z,100100.66
2023-04-11T02:20:06.944Z,100095.19
2023-04-11T02:22:34.793Z,100113.81
2023-04-11T02:25:02.599Z,100118.00
2023-04-11T02:27:31.943Z,100112.19
2023-04-11T02:30:00.192Z,100103.25
2023-04-11T02:32:30.356Z,100085.50
2023-04-11T02:34:59.628Z,100069.31
2023-04-11T02:37:28.125Z,100080.25
2023-04-11T02:39:58.594Z,100084.50
2023-04-11T02:42:26.421Z,100086.00
2023-04-11T02:44:55.538Z,100082.88
2023-04-11T02:47:27.649Z,100079.38
2023-04-11T02:50:00.566Z,100079.38
2023-04-11T02:52:33.760Z,100072.19
2023-04-11T02:55:02.108Z,100082.63
2023-04-11T02:57:29.940Z,100081.72
2023-04-11T02:59:58.826Z,100059.47
2023-04-11T03:02:37.180Z,100075.06
2023-04-11T03:05:08.165Z,100066.31
2023-04-11T03:07:40.531Z,100070.22
2023-04-11T03:10:10.596Z,100066.91
2023-04-11T03:12:38.750Z,100067.06
2023-04-11T03:15:09.195Z,100074.00
2023-04-11T03:17:37.168Z,100077.53
2023-04-11T03:20:11.787Z,100094.66
2023-04-11T03:22:39.632Z,100087.66
2023-04-11T03:25:08.900Z,100098.56
2023-04-11T03:27:37.252Z,100110.31
2023-04-11T03:30:07.164Z,100152.91
2023-04-11T03:32:42.335Z,100160.53
2023-04-11T03:35:12.043Z,100156.97
2023-04-11T03:37:44.903Z,100163.50
2023-04-11T03:40:13.039Z,100164.69
2023-04-11T03:42:47.235Z,100166.63
2023-04-11T03:45:19.689Z,100171.03
2023-04-11T03:47:49.045Z,100163.25
2023-04-11T03:50:21.736Z,100153.88
2023-04-11T03:52:55.868Z,100150.03
2023-04-11T03:55:24.129Z,100163.38
2023-04-11T03:57:52.154Z,100150.97
2023-04-11T04:00:21.043Z,100161.81
2023-04-11T04:03:00.549Z,100144.53
2023-04-11T04:05:30.139Z,100154.88
2023-04-11T04:07:57.950Z,100142.19
2023-04-11T04:10:38.721Z,100146.69
2023-04-11T04:13:06.601Z,100142.75
2023-04-11T04:15:37.809Z,100139.94
2023-04-11T04:18:07.232Z,100148.28
2023-04-11T04:20:48.627Z,100144.28
2023-04-11T04:23:18.689Z,100144.75
2023-04-11T04:26:13.132Z,100142.38
2023-04-11T04:28:46.144Z,100152.63
2023-04-11T04:31:22.366Z,100145.19
2023-04-11T04:33:52.002Z,100142.28
2023-04-11T04:36:25.883Z,100148.63
2023-04-11T04:38:56.342Z,100144.19
2023-04-11T04:41:24.702Z,100148.84
2023-04-11T04:44:01.015Z,100144.75
2023-04-11T04:46:41.574Z,100147.25
2023-04-11T04:49:10.062Z,100136.81
2023-04-11T04:51:40.287Z,100140.47
2023-04-11T04:54:08.614Z,100137.50
2023-04-11T04:56:37.423Z,100136.63
2023-04-11T04:59:05.791Z,100127.13
2023-04-11T05:01:40.026Z,100125.59
2023-04-11T05:04:10.239Z,100127.13
2023-04-11T05:06:47.953Z,100145.41
2023-04-11T05:09:16.578Z,100145.63
2023-04-11T05:11:44.980Z,100147.78
2023-04-11T05:14:21.922Z,100145.84
2023-04-11T05:16:51.960Z,100156.84
2023-04-11T05:19:20.684Z,100155.75
2023-04-11T05:21:52.597Z,100157.41
2023-04-11T05:24:20.434Z,100162.31
2023-04-11T05:26:49.459Z,100167.91
2023-04-11T05:29:19.848Z,100165.34
2023-04-11T05:31:49.388Z,100167.34
2023-04-11T05:34:18.273Z,100173.06
2023-04-11T05:36:49.367Z,100168.00
2023-04-11T05:39:18.688Z,100171.47
2023-04-11T05:41:46.612Z,100190.72
2023-04-11T05:44:14.563Z,100212.50
2023-04-11T05:46:42.597Z,100199.00
2023-04-11T05:49:11.624Z,100205.91
2023-04-11T05:51:39.822Z,100201.69
2023-04-11T05:54:08.207Z,100203.59
2023-04-11T05:56:39.718Z,100194.94
2023-04-11T05:59:07.586Z,100203.00
2023-04-11T06:01:35.494Z,100201.09
2023-04-11T06:04:03.611Z,100197.03
2023-04-11T06:06:31.601Z,100184.59
2023-04-11T06:09:01.227Z,100188.16
2023-04-11T06:11:29.050Z,100188.84
2023-04-11T06:13:58.625Z,100191.03
2023-04-11T06:16:26.641Z,100208.41
2023-04-11T06:18:54.718Z,100217.09
2023-04-11T06:21:22.609Z,100222.50
2023-04-11T06:23:50.834Z,100224.97
2023-04-11T06:26:18.769Z,100234.97
2023-04-11T06:28:46.698Z,100249.84
2023-04-11T06:31:16.023Z,100240.41
2023-04-11T06:33:44.027Z,100235.44
2023-04-11T06:36:12.634Z,100224.00
2023-04-11T06:38:40.609Z,100240.97
2023-04-11T06:41:08.701Z,100237.59
2023-04-11T06:43:36.709Z,100232.28
2023-04-11T06:46:04.909Z,100218.53
2023-04-11T06:48:34.467Z,100229.81
2023-04-11T06:51:02.820Z,100229.00
2023-04-11T06:53:30.651Z,100223.63
2023-04-11T06:55:59.696Z,100231.84
2023-04-11T06:58:27.552Z,100225.91
2023-04-11T07:00:55.358Z,100229.81
2023-04-11T07:03:25.156Z,100230.97
2023-04-11T07:05:54.712Z,100238.63
2023-04-11T07:08:22.590Z,100254.09
2023-04-11T07:10:50.391Z,100239.72
2023-04-11T07:13:18.314Z,100253.38
2023-04-11T07:15:46.151Z,100250.59
2023-04-11T07:18:14.862Z,100244.59
2023-04-11T07:20:42.937Z,100254.00
2023-04-11T07:23:12.231Z,100244.72
2023-04-11T07:25:40.342Z,100261.03
2023-04-11T07:28:08.471Z,100255.53
2023-04-11T07:30:36.695Z,100247.88
2023-04-11T07:33:05.795Z,100251.50
2023-04-11T07:35:34.667Z,100258.06
2023-04-11T07:38:03.493Z,100255.63
2023-04-11T07:40:33.375Z,100253.69
2023-04-11T07:43:01.845Z,100253.88
2023-04-11T07:45:29.636Z,100254.47
2023-04-11T07:47:57.536Z,100268.53
2023-04-11T07:50:25.340Z,100267.09
2023-04-11T07:52:53.204Z,100269.81
2023-04-11T07:55:21.096Z,100276.19
2023-04-11T07:57:50.323Z,100279.00
2023-04-11T08:00:23.486Z,100283.44
2023-04-11T08:02:52.421Z,100287.31
2023-04-11T08:05:20.759Z,100280.47
2023-04-11T08:07:48.669Z,100291.13
2023-04-11T08:10:16.700Z,100286.19
2023-04-11T08:12:44.618Z,100290.75
2023-04-11T08:15:14.089Z,100286.13
2023-04-11T08:17:43.829Z,100301.50
2023-04-11T08:20:13.881Z,100305.22
2023-04-11T08:22:44.629Z,100296.53
2023-04-11T08:25:14.163Z,100306.22
2023-04-11T08:27:42.957Z,100301.38
2023-04-11T08:30:11.395Z,100307.50
2023-04-11T08:32:40.916Z,100307.19
2023-04-11T08:35:10.062Z,100310.88
2023-04-11T08:37:38.007Z,100300.47
2023-04-11T08:40:07.735Z,100312.38
2023-04-11T08:42:36.444Z,100299.47
2023-04-11T08:45:08.571Z,100299.22
2023-04-11T08:47:37.241Z,100318.94
2023-04-11T08:50:07.999Z,100311.94
2023-04-11T08:52:40.102Z,100304.94
2023-04-11T08:55:08.578Z,100304.13
2023-04-11T08:57:38.108Z,100304.81
2023-04-11T09:00:13.743Z,100282.19
2023-04-11T09:02:59.799Z,100299.75
2023-04-11T09:05:31.159Z,100283.91
2023-04-11T09:07:59.368Z,100299.94
2023-04-11T09:10:27.871Z,100298.19
2023-04-11T09:12:56.044Z,100303.22
2023-04-11T09:15:25.681Z,100302.75
2023-04-11T09:17:53.887Z,100313.41
2023-04-11T09:20:26.069Z,100309.16
2023-04-11T09:22:55.412Z,100313.72
2023-04-11T09:25:24.403Z,100312.25
2023-04-11T09:28:08.771Z,100324.19
2023-04-11T09:30:37.314Z,100325.50
2023-04-11T09:33:20.673Z,100313.34
2023-04-11T09:35:49.745Z,100319.94
2023-04-11T09:38:30.703Z,100299.72
2023-04-11T09:40:59.347Z,100296.22
2023-04-11T09:43:28.055Z,100323.28
2023-04-11T09:46:12.270Z,100311.28
2023-04-11T09:51:15.831Z,100342.00
2023-04-11T09:53:50.291Z,100353.38
2023-04-11T09:56:18.078Z,100353.81
2023-04-11T09:58:48.360Z,100382.16
2023-04-11T10:01:16.898Z,100379.66
2023-04-11T10:03:47.244Z,100381.91
2023-04-11T10:06:23.272Z,100374.03
2023-04-11T10:08:52.875Z,100377.84
2023-04-11T10:11:25.543Z,100368.09
2023-04-11T10:13:53.627Z,100370.03
2023-04-11T10:16:24.162Z,100361.19
2023-04-11T10:19:28.801Z,100374.69
2023-04-11T10:21:57.056Z,100363.38
2023-04-11T10:24:26.833Z,100361.34
2023-04-11T10:26:57.592Z,100351.25
2023-04-11T10:29:50.722Z,100348.47
2023-04-11T10:32:22.368Z,100355.00
2023-04-11T10:35:25.085Z,100363.00
2023-04-11T10:37:53.027Z,100345.78
2023-04-11T10:40:22.792Z,100339.50
2023-04-11T10:42:51.528Z,100334.78
2023-04-11T10:45:25.554Z,100340.97
2023-04-11T10:48:05.914Z,100337.06
2023-04-11T10:50:40.973Z,100341.03
2023-04-11T10:53:14.491Z,100368.03
2023-04-11T10:55:49.859Z,100344.75
2023-04-11T10:58:19.926Z,100339.13
2023-04-11T11:01:25.797Z,100345.66
2023-04-11T11:04:00.702Z,100337.75
2023-04-11T11:06:29.216Z,100356.78
2023-04-11T11:08:57.841Z,100351.28
2023-04-11T11:11:27.267Z,100348.31
2023-04-11T11:13:56.663Z,100360.25
2023-04-11T11:16:26.402Z,100359.16
2023-04-11T11:18:55.674Z,100369.22
2023-04-11T11:21:28.577Z,100364.81
2023-04-11T11:23:59.123Z,100365.66
2023-04-11T11:26:42.311Z,100381.66
2023-04-11T11:29:11.329Z,100368.03
2023-04-11T11:31:41.725Z,100372.09
2023-04-11T11:36:43.826Z,100390.69
2023-04-11T11:39:12.874Z,100383.69
2023-04-11T11:41:42.515Z,100380.06
2023-04-11T11:44:22.547Z,100391.06
2023-04-11T11:47:02.213Z,100378.28
2023-04-11T11:49:44.729Z,100386.38
2023-04-11T11:52:12.741Z,100383.44
2023-04-11T11:54:47.484Z,100394.00
2023-04-11T11:57:23.824Z,100375.03
2023-04-11T11:59:56.143Z,100378.25
2023-04-11T12:02:26.202Z,100377.97
2023-04-11T12:04:59.834Z,100393.25
2023-04-11T12:07:32.498Z,100391.47
2023-04-11T12:10:01.099Z,100407.19
2023-04-11T12:12:37.345Z,100399.69
2023-04-11T12:15:11.681Z,100395.13
2023-04-11T12:17:39.865Z,100402.00
2023-04-11T12:20:09.018Z,100397.72
2023-04-11T12:22:37.518Z,100394.72
2023-04-11T12:25:07.247Z,100398.47
2023-04-11T12:27:37.686Z,100397.81
2023-04-11T12:30:06.602Z,100413.97
2023-04-11T12:32:35.028Z,100410.78
2023-04-11T12:35:03.642Z,100400.19
2023-04-11T12:37:32.195Z,100401.91
2023-04-11T12:40:00.514Z,100384.09
2023-04-11T12:42:28.969Z,100386.81
2023-04-11T12:44:58.320Z,100396.34
2023-04-11T12:47:26.335Z,100394.47
2023-04-11T12:49:54.401Z,100402.06
2023-04-11T12:52:22.479Z,100433.41
2023-04-11T12:54:50.905Z,100417.56
2023-04-11T12:57:18.808Z,100474.91
2023-04-11T12:59:46.609Z,100459.22
2023-04-11T13:02:16.276Z,100466.06
2023-04-11T13:04:44.632Z,100479.41
2023-04-11T13:07:12.642Z,100449.94
2023-04-11T13:09:40.896Z,100455.88
2023-04-11T13:12:09.071Z,100448.88
2023-04-11T13:14:37.805Z,100457.34
2023-04-11T13:17:06.018Z,100469.03
2023-04-11T13:19:36.286Z,100475.06
2023-04-11T13:22:04.945Z,100480.94
2023-04-11T13:24:33.560Z,100486.81
2023-04-11T13:27:04.562Z,100489.22
2023-04-11T13:29:32.463Z,100501.06
2023-04-11T13:32:00.785Z,100505.91
2023-04-11T13:34:29.477Z,100507.41
2023-04-11T13:36:58.727Z,100501.31
2023-04-11T13:39:26.734Z,100507.03
2023-04-11T13:41:54.524Z,100511.63
2023-04-11T13:44:22.384Z,100516.13
2023-04-11T13:46:50.167Z,100507.75
2023-04-11T13:49:18.013Z,100510.31
2023-04-11T13:51:45.940Z,100515.59
2023-04-11T13:54:15.341Z,100510.25
2023-04-11T13:56:43.267Z,100509.97
2023-04-11T13:59:11.580Z,100514.53
2023-04-11T14:01:40.207Z,100520.22
2023-04-11T14:04:08.405Z,100530.16
2023-04-11T14:06:37.544Z,100544.88
2023-04-11T14:09:06.288Z,100532.72
2023-04-11T14:11:35.593Z,100523.59
2023-04-11T14:14:03.565Z,100500.22
2023-04-11T14:16:31.435Z,100519.72
2023-04-11T14:18:59.332Z,100518.41
2023-04-11T14:21:28.835Z,100532.97
2023-04-11T14:23:57.269Z,100526.19
2023-04-11T14:26:25.921Z,100539.00
2023-04-11T14:28:55.629Z,100544.50
2023-04-11T14:31:24.113Z,100572.41
2023-04-11T14:33:53.770Z,100572.63
2023-04-11T14:36:23.724Z,100560.75
2023-04-11T14:38:52.007Z,100560.19
2023-04-11T14:41:20.544Z,100559.88
2023-04-11T14:43:48.690Z,100569.44
2023-04-11T14:46:18.893Z,100565.78
2023-04-11T14:48:47.528Z,100561.88
2023-04-11T14:51:15.872Z,100557.25
2023-04-11T14:53:44.096Z,100556.28
2023-04-11T14:56:12.346Z,100544.00
2023-04-11T14:58:40.254Z,100555.41
2023-04-11T15:01:09.530Z,100548.63
2023-04-11T15:03:39.041Z,100539.47
2023-04-11T15:06:07.972Z,100547.50
2023-04-11T15:08:36.330Z,100548.72
2023-04-11T15:11:04.460Z,100541.69
2023-04-11T15:13:35.358Z,100553.34
2023-04-11T15:16:04.127Z,100545.16
2023-04-11T15:18:33.048Z,100545.00
2023-04-11T15:21:03.467Z,100554.09
2023-04-11T15:23:31.895Z,100554.25
2023-04-11T15:26:02.655Z,100541.69
2023-04-11T15:28:33.367Z,100549.47
2023-04-11T15:31:05.429Z,100562.63
2023-04-11T15:33:34.061Z,100559.38
2023-04-11T15:36:03.696Z,100573.88
2023-04-11T15:38:31.858Z,100559.38
2023-04-11T15:41:00.552Z,100542.50
2023-04-11T15:43:31.858Z,100546.19
2023-04-11T15:46:02.227Z,100562.50
2023-04-11T15:48:30.621Z,100565.44
2023-04-11T15:50:58.501Z,100564.28
2023-04-11T15:53:27.734Z,100552.91
2023-04-11T15:55:55.846Z,100548.63
2023-04-11T15:58:34.583Z,100569.22
2023-04-11T16:01:03.378Z,100543.44
2023-04-11T16:03:32.828Z,100549.63
2023-04-11T16:06:01.345Z,100546.38
2023-04-11T16:08:30.691Z,100555.41
2023-04-11T16:10:58.636Z,100554.84
2023-04-11T16:13:26.579Z,100549.91
2023-04-11T16:15:54.451Z,100539.22
2023-04-11T16:18:22.262Z,100547.06
2023-04-11T16:20:50.104Z,100555.66
2023-04-11T16:23:18.153Z,100548.56
2023-04-11T16:25:47.542Z,100544.19
2023-04-11T16:28:15.442Z,100548.03
2023-04-11T16:30:43.512Z,100560.53
2023-04-11T16:33:12.646Z,100549.94
2023-04-11T16:35:40.961Z,100569.63
2023-04-11T16:38:08.880Z,100568.34
2023-04-11T16:40:37.124Z,100552.16
2023-04-11T16:43:06.498Z,100562.31
2023-04-11T16:45:34.728Z,100552.63
2023-04-11T16:48:03.248Z,100555.69
2023-04-11T16:50:31.267Z,100564.06
2023-04-11T16:52:59.263Z,100562.19
2023-04-11T16:55:27.254Z,100562.63
2023-04-11T16:57:55.968Z,100561.00
2023-04-11T17:00:26.257Z,100560.63
2023-04-11T17:02:54.286Z,100557.66
2023-04-11T17:05:24.053Z,100579.09
2023-04-11T17:07:52.386Z,100572.88
2023-04-11T17:10:22.545Z,100568.34
2023-04-11T17:12:50.821Z,100574.97
2023-04-11T17:15:19.039Z,100572.66
2023-04-11T17:17:48.565Z,100562.28
2023-04-11T17:20:16.643Z,100568.13
2023-04-11T17:22:44.944Z,100567.47
2023-04-11T17:25:13.096Z,100572.44
2023-04-11T17:27:41.704Z,100559.81
2023-04-11T17:30:11.935Z,100563.03
2023-04-11T17:32:40.063Z,100572.66
2023-04-11T17:35:10.805Z,100572.56
2023-04-11T17:37:39.895Z,100581.91
2023-04-11T17:40:13.189Z,100577.97
2023-04-11T17:42:42.128Z,100581.75
2023-04-11T17:45:17.658Z,100580.63
2023-04-11T17:47:47.178Z,100590.19
2023-04-11T17:50:17.911Z,100583.88
2023-04-11T17:52:47.483Z,100580.81
2023-04-11T17:55:17.671Z,100586.13
2023-04-11T17:57:47.325Z,100590.09
2023-04-11T18:00:20.036Z,100593.91
2023-04-11T18:02:49.840Z,100594.97
2023-04-11T18:05:24.371Z,100592.34
2023-04-11T18:07:56.732Z,100599.19
2023-04-11T18:10:27.106Z,100606.44
2023-04-11T18:12:56.846Z,100609.78
2023-04-11T18:15:27.102Z,100608.28
2023-04-11T18:17:55.878Z,100599.88
2023-04-11T18:20:25.531Z,100596.59
2023-04-11T18:22:56.508Z,100597.38
2023-04-11T18:25:25.193Z,100603.88
2023-04-11T18:27:53.276Z,100604.34
2023-04-11T18:30:21.484Z,100598.78
2023-04-11T18:32:51.770Z,100600.81
2023-04-11T18:35:56.770Z,100601.81
2023-04-11T18:38:45.181Z,100609.78
2023-04-11T18:41:19.835Z,100615.81
2023-04-11T18:44:02.042Z,100612.13
2023-04-11T18:46:31.158Z,100606.09
2023-04-11T18:51:28.654Z,100610.75
2023-04-11T18:53:57.069Z,100607.63
2023-04-11T18:56:26.628Z,100608.66
2023-04-11T18:59:04.730Z,100606.94
2023-04-11T19:01:50.988Z,100609.56
2023-04-11T19:04:19.744Z,100613.44
2023-04-11T19:06:52.682Z,100610.50
2023-04-11T19:09:22.124Z,100606.72
2023-04-11T19:11:51.347Z,100616.25
2023-04-11T19:14:19.385Z,100616.78
2023-04-11T19:16:47.820Z,100620.88
2023-04-11T19:19:15.922Z,100613.81
2023-04-11T19:21:43.840Z,100616.06
2023-04-11T19:24:13.190Z,100616.47
2023-04-11T19:26:41.566Z,100617.19
2023-04-11T19:29:09.709Z,100616.00
2023-04-11T19:31:37.654Z,100623.75
2023-04-11T19:34:06.176Z,100620.84
2023-04-11T19:36:34.321Z,100619.88
2023-04-11T19:39:02.724Z,100621.63
2023-04-11T19:41:32.171Z,100626.56
2023-04-11T19:44:00.695Z,100628.09
2023-04-11T19:46:28.995Z,100630.53
2023-04-11T19:48:57.240Z,100630.16
2023-04-11T19:51:25.316Z,100634.38
2023-04-11T19:53:53.436Z,100620.41
2023-04-11T19:56:22.796Z,100622.22
2023-04-11T19:58:52.354Z,100619.25
2023-04-11T20:01:20.604Z,100614.56
2023-04-11T20:03:48.813Z,100610.22
2023-04-11T20:06:18.632Z,100609.88
2023-04-11T20:08:46.758Z,100598.63
2023-04-11T20:11:15.601Z,100587.13
2023-04-11T20:13:43.752Z,100585.31
2023-04-11T20:16:13.267Z,100583.94
2023-04-11T20:18:41.405Z,100587.50
2023-04-11T20:21:09.600Z,100582.72
2023-04-11T20:23:37.494Z,100579.13
2023-04-11T20:26:05.892Z,100581.53
2023-04-11T20:28:34.817Z,100584.63
2023-04-11T20:31:04.357Z,100571.34
2023-04-11T20:33:33.856Z,100565.91
2023-04-11T20:36:03.277Z,100564.97
2023-04-11T20:39:13.301Z,100562.19
2023-04-11T20:41:41.889Z,100570.97
2023-04-11T20:44:10.247Z,100562.09
2023-04-11T20:46:39.828Z,100571.28
2023-04-11T20:49:12.523Z,100565.13
2023-04-11T20:51:41.057Z,100566.31
2023-04-11T20:54:08.873Z,100555.47
2023-04-11T20:56:36.706Z,100556.38
2023-04-11T20:59:07.084Z,100552.16
2023-04-11T21:01:35.286Z,100560.06
2023-04-11T21:04:03.521Z,100548.81
2023-04-11T21:06:33.480Z,100551.97
2023-04-11T21:09:02.606Z,100544.94
2023-04-11T21:11:30.507Z,100542.88
2023-04-11T21:13:58.681Z,100538.16
2023-04-11T21:16:26.953Z,100548.66
2023-04-11T21:18:54.903Z,100545.03
2023-04-11T21:21:23.106Z,100537.28
2023-04-11T21:23:52.317Z,100538.16
2023-04-11T21:26:20.130Z,100547.22
2023-04-11T21:28:48.044Z,100542.88
2023-04-11T21:31:16.398Z,100543.59
2023-04-11T21:33:46.846Z,100543.09
2023-04-11T21:36:15.285Z,100545.97
2023-04-11T21:38:43.386Z,100546.47
2023-04-11T21:41:12.660Z,100553.13
2023-04-11T21:43:41.068Z,100550.34
2023-04-11T21:46:08.990Z,100552.19
2023-04-11T21:48:36.886Z,100544.13
2023-04-11T21:51:04.949Z,100542.25
2023-04-11T21:53:32.806Z,100537.13
2023-04-11T21:56:00.662Z,100534.84
2023-04-11T21:58:30.097Z,100535.75
2023-04-11T22:00:57.988Z,100526.16
2023-04-11T22:03:28.695Z,100523.91
2023-04-11T22:05:58.281Z,100518.56
2023-04-11T22:08:29.178Z,100515.31
2023-04-11T22:10:57.303Z,100516.66
2023-04-11T22:13:25.711Z,100517.56
2023-04-11T22:15:58.763Z,100513.50
2023-04-11T22:18:27.026Z,100512.53
2023-04-11T22:20:55.300Z,100506.72
2023-04-11T22:23:25.081Z,100502.16
2023-04-11T22:25:57.790Z,100509.88
2023-04-11T22:28:26.334Z,100495.56
2023-04-11T22:30:57.534Z,100502.97
2023-04-11T22:33:25.654Z,100495.50
2023-04-11T22:35:54.488Z,100495.41
2023-04-11T22:38:22.461Z,100496.81
2023-04-11T22:40:50.267Z,100489.56
2023-04-11T22:43:18.492Z,100486.41
2023-04-11T22:45:46.817Z,100492.44
2023-04-11T22:48:16.258Z,100499.28
2023-04-11T22:50:49.449Z,100487.63
2023-04-11T22:53:18.151Z,100481.16
2023-04-11T22:55:46.037Z,100480.56
2023-04-11T22:58:13.937Z,100475.41
2023-04-11T23:00:43.241Z,100476.53
2023-04-11T23:03:14.080Z,100467.53
2023-04-11T23:05:43.730Z,100460.94
2023-04-11T23:08:11.608Z,100454.34
2023-04-11T23:10:39.737Z,100452.34
2023-04-11T23:13:08.448Z,100454.91
2023-04-11T23:15:37.392Z,100454.78
2023-04-11T23:18:05.560Z,100449.31
2023-04-11T23:20:36.974Z,100454.44
2023-04-11T23:23:06.508Z,100448.34
2023-04-11T23:25:35.100Z,100443.03
2023-04-11T23:28:03.258Z,100422.69
2023-04-11T23:30:31.252Z,100427.38
2023-04-11T23:32:59.709Z,100419.28
2023-04-11T23:35:28.014Z,100415.19
2023-04-11T23:37:55.868Z,100409.06
2023-04-11T23:40:25.283Z,100413.28
2023-04-11T23:42:53.380Z,100409.31
2023-04-11T23:45:22.576Z,100411.97
2023-04-11T23:47:50.996Z,100412.53
2023-04-11T23:50:19.299Z,100409.25
2023-04-11T23:52:47.492Z,100410.41
2023-04-11T23:55:15.544Z,100399.81
2023-04-11T23:57:44.801Z,100391.47
